createdAt,value
2023-03-25T07:32:11.911Z,80.44
2023-03-25T07:32:12.434Z,80.54
2023-03-25T07:32:23.097Z,80.44
2023-03-25T07:32:32.930Z,80.44
2023-03-25T07:32:43.172Z,80.33
2023-03-25T07:32:53.441Z,80.33
2023-03-25T07:33:14.116Z,80.23
2023-03-25T07:33:24.377Z,80.23
2023-03-25T07:33:34.638Z,80.23
2023-03-25T07:33:44.897Z,80.23
2023-03-25T07:33:55.213Z,80.23
2023-03-25T07:34:05.444Z,80.23
2023-03-25T07:34:15.704Z,80.23
2023-03-25T07:34:25.962Z,80.13
2023-03-25T07:34:36.242Z,80.13
2023-03-25T07:34:46.484Z,80.02
2023-03-25T07:34:56.746Z,79.93
2023-03-25T07:35:07.025Z,79.93
2023-03-25T07:35:17.303Z,79.82
2023-03-25T07:35:27.557Z,79.82
2023-03-25T07:35:37.817Z,79.82
2023-03-25T07:35:48.111Z,79.82
2023-03-25T07:35:58.416Z,79.82
2023-03-25T07:36:08.760Z,79.72
2023-03-25T07:36:19.032Z,79.72
2023-03-25T07:36:29.295Z,79.72
2023-03-25T07:36:39.551Z,79.61
2023-03-25T07:36:49.828Z,79.61
2023-03-25T07:37:00.120Z,79.61
2023-03-25T07:37:10.342Z,79.51
2023-03-25T07:37:20.607Z,79.51
2023-03-25T07:37:30.878Z,79.41
2023-03-25T07:37:41.126Z,79.30
2023-03-25T07:37:51.384Z,79.30
2023-03-25T07:38:01.663Z,79.30
2023-03-25T07:38:12.363Z,79.20
2023-03-25T07:38:22.186Z,79.10
2023-03-25T07:38:32.549Z,79.10
2023-03-25T07:38:42.787Z,79.20
2023-03-25T07:38:54.743Z,79.30
2023-03-25T07:39:03.440Z,79.30
2023-03-25T07:39:13.700Z,79.41
2023-03-25T07:39:26.113Z,79.41
2023-03-25T07:39:34.205Z,79.30
2023-03-25T07:39:44.464Z,79.30
2023-03-25T07:39:54.725Z,79.20
2023-03-25T07:40:04.988Z,79.10
2023-03-25T07:40:15.254Z,79.20
2023-03-25T07:40:35.971Z,79.20
2023-03-25T07:40:50.020Z,79.20
2023-03-25T07:40:56.586Z,79.20
2023-03-25T07:41:06.862Z,79.30
2023-03-25T07:41:17.116Z,79.30
2023-03-25T07:41:27.388Z,79.30
2023-03-25T07:41:37.632Z,79.41
2023-03-25T07:41:47.894Z,79.41
2023-03-25T07:41:58.177Z,79.41
2023-03-25T07:42:08.424Z,79.41
2023-03-25T07:42:18.685Z,79.20
2023-03-25T07:42:28.943Z,79.20
2023-03-25T07:42:39.202Z,79.10
2023-03-25T07:42:49.463Z,79.10
2023-03-25T07:42:59.765Z,79.10
2023-03-25T07:43:10.960Z,79.20
2023-03-25T07:43:20.364Z,79.20
2023-03-25T07:43:30.628Z,79.10
2023-03-25T07:43:40.885Z,79.10
2023-03-25T07:43:51.148Z,79.10
2023-03-25T07:44:01.403Z,79.10
2023-03-25T07:44:11.668Z,79.10
2023-03-25T07:44:22.024Z,79.10
2023-03-25T07:44:32.287Z,79.10
2023-03-25T07:44:42.545Z,79.10
2023-03-25T07:44:52.830Z,79.00
2023-03-25T07:45:03.090Z,79.10
2023-03-25T07:45:13.344Z,79.10
2023-03-25T07:45:23.607Z,79.00
2023-03-25T07:45:45.098Z,79.00
2023-03-25T07:45:54.514Z,79.00
2023-03-25T07:45:56.033Z,79.00
2023-03-25T07:46:04.827Z,79.00
2023-03-25T07:46:15.057Z,79.00
2023-03-25T07:46:25.370Z,79.00
2023-03-25T07:46:35.714Z,79.14
2023-03-25T07:46:45.950Z,79.00
2023-03-25T07:46:56.226Z,79.00
2023-03-25T07:47:06.482Z,79.03
2023-03-25T07:47:16.770Z,79.00
2023-03-25T07:47:27.031Z,78.93
2023-03-25T07:47:37.311Z,78.93
2023-03-25T07:47:47.550Z,78.89
2023-03-25T07:47:57.833Z,78.83
2023-03-25T07:48:08.475Z,78.93
2023-03-25T07:48:18.558Z,78.89
2023-03-25T07:48:28.833Z,78.89
2023-03-25T07:48:39.090Z,79.00
2023-03-25T07:48:49.529Z,79.00
2023-03-25T07:48:59.574Z,79.00
2023-03-25T07:49:09.844Z,78.89
2023-03-25T07:49:20.127Z,78.93
2023-03-25T07:49:30.444Z,78.79
2023-03-25T07:49:40.658Z,78.79
2023-03-25T07:49:50.950Z,78.79
2023-03-25T07:50:01.209Z,78.69
2023-03-25T07:50:11.462Z,78.69
2023-03-25T07:50:23.709Z,78.69
2023-03-25T07:50:31.998Z,78.69
2023-03-25T07:50:42.261Z,78.62
2023-03-25T07:50:52.586Z,78.48
2023-03-25T07:51:02.820Z,78.48
2023-03-25T07:51:13.079Z,78.38
2023-03-25T07:51:23.342Z,78.48
2023-03-25T07:51:33.607Z,78.41
2023-03-25T07:51:43.867Z,78.38
2023-03-25T07:51:54.127Z,78.41
2023-03-25T07:52:04.389Z,78.38
2023-03-25T07:52:14.655Z,78.38
2023-03-25T07:52:24.914Z,78.48
2023-03-25T07:52:35.189Z,78.48
2023-03-25T07:52:45.441Z,78.58
2023-03-25T07:52:55.824Z,78.62
2023-03-25T07:53:06.124Z,78.62
2023-03-25T07:53:16.387Z,78.52
2023-03-25T07:53:26.648Z,78.41
2023-03-25T07:53:36.914Z,78.28
2023-03-25T07:53:47.170Z,78.31
2023-03-25T07:54:04.796Z,78.31
2023-03-25T07:54:08.656Z,78.41
2023-03-25T07:54:18.057Z,78.41
2023-03-25T07:54:28.326Z,78.41
2023-03-25T07:54:38.574Z,78.41
2023-03-25T07:54:49.025Z,78.41
2023-03-25T07:54:59.066Z,78.41
2023-03-25T07:55:09.330Z,78.31
2023-03-25T07:55:19.590Z,78.31
2023-03-25T07:55:29.858Z,78.21
2023-03-25T07:55:40.123Z,78.21
2023-03-25T07:55:50.514Z,78.21
2023-03-25T07:56:00.647Z,78.21
2023-03-25T07:56:10.900Z,78.11
2023-03-25T07:56:21.178Z,78.21
2023-03-25T07:56:31.468Z,78.21
2023-03-25T07:56:41.725Z,78.21
2023-03-25T07:56:51.986Z,78.21
2023-03-25T07:57:02.353Z,78.21
2023-03-25T07:57:12.683Z,78.21
2023-03-25T07:57:22.901Z,78.21
2023-03-25T07:57:33.168Z,78.21
2023-03-25T07:57:43.452Z,78.21
2023-03-25T07:57:53.713Z,78.21
2023-03-25T07:58:03.984Z,78.31
2023-03-25T07:58:14.239Z,78.41
2023-03-25T07:58:24.503Z,78.52
2023-03-25T07:58:34.778Z,78.41
2023-03-25T07:58:45.045Z,78.31
2023-03-25T07:58:55.329Z,78.31
2023-03-25T07:59:05.571Z,78.31
2023-03-25T07:59:15.815Z,78.31
2023-03-25T07:59:28.066Z,78.31
2023-03-25T07:59:36.400Z,78.31
2023-03-25T07:59:46.667Z,78.31
2023-03-25T07:59:56.935Z,78.31
2023-03-25T08:00:07.488Z,78.41
2023-03-25T08:00:17.530Z,78.41
2023-03-25T08:00:27.793Z,78.52
2023-03-25T08:00:39.061Z,78.41
2023-03-25T08:00:48.478Z,78.41
2023-03-25T08:00:58.764Z,78.41
2023-03-25T08:01:09.033Z,78.41
2023-03-25T08:01:19.281Z,78.41
2023-03-25T08:01:29.605Z,78.41
2023-03-25T08:01:39.858Z,78.41
2023-03-25T08:01:50.114Z,78.62
2023-03-25T08:02:00.439Z,78.72
2023-03-25T08:02:10.701Z,78.72
2023-03-25T08:02:21.001Z,78.52
2023-03-25T08:02:31.345Z,78.52
2023-03-25T08:02:41.791Z,78.41
2023-03-25T08:02:52.010Z,78.52
2023-03-25T08:03:02.353Z,78.52
2023-03-25T08:03:12.785Z,78.41
2023-03-25T08:03:23.127Z,78.41
2023-03-25T08:03:33.607Z,78.31
2023-03-25T08:03:43.791Z,78.31
2023-03-25T08:03:54.175Z,78.31
2023-03-25T08:04:04.482Z,78.31
2023-03-25T08:04:14.727Z,78.31
2023-03-25T08:04:24.976Z,78.41
2023-03-25T08:04:35.239Z,78.31
2023-03-25T08:04:45.492Z,78.31
2023-03-25T08:04:55.752Z,78.21
2023-03-25T08:05:06.006Z,78.21
2023-03-25T08:05:16.265Z,78.31
2023-03-25T08:05:26.509Z,78.41
2023-03-25T08:05:36.770Z,78.31
2023-03-25T08:05:47.062Z,78.31
2023-03-25T08:05:57.282Z,78.31
2023-03-25T08:06:07.550Z,78.21
2023-03-25T08:06:17.794Z,78.31
2023-03-25T08:06:29.041Z,78.41
2023-03-25T08:06:38.451Z,78.41
2023-03-25T08:06:48.700Z,78.41
2023-03-25T08:06:58.953Z,78.52
2023-03-25T08:07:09.197Z,78.41
2023-03-25T08:07:19.466Z,78.41
2023-03-25T08:07:29.711Z,78.31
2023-03-25T08:07:39.983Z,78.31
2023-03-25T08:07:50.233Z,78.31
2023-03-25T08:08:00.483Z,78.21
2023-03-25T08:08:10.717Z,78.21
2023-03-25T08:08:20.957Z,78.31
2023-03-25T08:08:31.205Z,78.31
2023-03-25T08:08:41.448Z,78.41
2023-03-25T08:08:51.702Z,78.41
2023-03-25T08:09:01.940Z,78.41
2023-03-25T08:09:12.186Z,78.41
2023-03-25T08:09:22.426Z,78.41
2023-03-25T08:09:32.689Z,78.41
2023-03-25T08:09:42.929Z,78.41
2023-03-25T08:09:53.267Z,78.31
2023-03-25T08:10:03.520Z,78.21
2023-03-25T08:10:13.743Z,78.21
2023-03-25T08:10:23.985Z,78.11
2023-03-25T08:10:34.213Z,78.11
2023-03-25T08:10:44.461Z,78.11
2023-03-25T08:10:54.704Z,78.11
2023-03-25T08:11:04.931Z,78.31
2023-03-25T08:11:15.170Z,78.31
2023-03-25T08:11:25.409Z,78.31
2023-03-25T08:11:35.653Z,78.31
2023-03-25T08:11:45.882Z,78.41
2023-03-25T08:11:56.127Z,78.41
2023-03-25T08:12:06.355Z,78.41
2023-03-25T08:12:16.599Z,78.52
2023-03-25T08:12:26.844Z,78.41
2023-03-25T08:12:37.083Z,78.41
2023-03-25T08:12:47.932Z,78.52
2023-03-25T08:12:57.744Z,78.52
2023-03-25T08:13:08.021Z,78.41
2023-03-25T08:13:18.259Z,78.41
2023-03-25T08:13:28.498Z,78.41
2023-03-25T08:13:38.729Z,78.31
2023-03-25T08:13:48.964Z,78.31
2023-03-25T08:13:59.207Z,78.41
2023-03-25T08:14:09.457Z,78.62
2023-03-25T08:14:19.680Z,78.62
2023-03-25T08:14:29.917Z,78.62
2023-03-25T08:14:40.153Z,78.52
2023-03-25T08:14:50.395Z,78.41
2023-03-25T08:15:00.632Z,78.41
2023-03-25T08:15:10.866Z,78.31
2023-03-25T08:15:21.097Z,78.31
2023-03-25T08:15:31.342Z,78.31
2023-03-25T08:15:41.582Z,78.21
2023-03-25T08:15:52.071Z,78.21
2023-03-25T08:16:02.185Z,78.41
2023-03-25T08:16:12.464Z,79.03
2023-03-25T08:16:22.687Z,79.44
2023-03-25T08:16:32.919Z,79.75
2023-03-25T08:16:43.225Z,79.86
2023-03-25T08:16:53.473Z,80.16
2023-03-25T08:17:03.711Z,80.68
2023-03-25T08:17:14.988Z,80.99
2023-03-25T08:17:24.381Z,81.09
2023-03-25T08:17:34.598Z,81.20
2023-03-25T08:17:44.861Z,81.09
2023-03-25T08:17:55.101Z,81.20
2023-03-25T08:18:05.379Z,81.30
2023-03-25T08:18:15.626Z,81.30
2023-03-25T08:18:25.881Z,81.40
2023-03-25T08:18:36.105Z,81.51
2023-03-25T08:18:46.332Z,81.61
2023-03-25T08:18:56.568Z,81.71
2023-03-25T08:19:06.813Z,81.61
2023-03-25T08:19:17.330Z,81.51
2023-03-25T08:19:27.350Z,81.61
2023-03-25T08:19:37.584Z,81.98
2023-03-25T08:19:47.826Z,81.98
2023-03-25T08:19:58.069Z,81.98
2023-03-25T08:20:08.300Z,82.19
2023-03-25T08:20:18.549Z,82.29
2023-03-25T08:20:28.766Z,82.29
2023-03-25T08:20:42.244Z,82.29
2023-03-25T08:20:49.359Z,82.19
2023-03-25T08:20:59.600Z,82.29
2023-03-25T08:21:09.836Z,82.50
2023-03-25T08:21:20.083Z,82.60
2023-03-25T08:21:30.327Z,82.60
2023-03-25T08:21:50.987Z,82.81
2023-03-25T08:22:01.208Z,83.32
2023-03-25T08:22:11.460Z,83.63
2023-03-25T08:22:21.709Z,83.63
2023-03-25T08:22:32.058Z,83.84
2023-03-25T08:22:42.321Z,84.14
2023-03-25T08:22:52.580Z,84.45
2023-03-25T08:23:02.889Z,84.77
2023-03-25T08:23:13.135Z,84.97
2023-03-25T08:23:23.402Z,85.38
2023-03-25T08:23:33.703Z,85.69
2023-03-25T08:23:43.934Z,85.79
2023-03-25T08:23:54.209Z,85.69
2023-03-25T08:24:04.476Z,85.69
2023-03-25T08:24:14.738Z,86.00
2023-03-25T08:24:24.983Z,86.21
2023-03-25T08:24:35.251Z,86.10
2023-03-25T08:24:45.539Z,86.21
2023-03-25T08:24:55.793Z,86.52
2023-03-25T08:25:06.059Z,86.79
2023-03-25T08:25:16.335Z,86.88
2023-03-25T08:25:26.595Z,86.88
2023-03-25T08:25:36.849Z,86.79
2023-03-25T08:25:47.111Z,86.79
2023-03-25T08:25:57.369Z,86.79
2023-03-25T08:26:07.641Z,86.99
2023-03-25T08:26:17.911Z,87.30
2023-03-25T08:26:28.164Z,87.40
2023-03-25T08:26:38.416Z,87.40
2023-03-25T08:26:48.675Z,87.19
2023-03-25T08:26:58.935Z,86.88
2023-03-25T08:27:16.257Z,86.68
2023-03-25T08:27:20.412Z,86.47
2023-03-25T08:27:29.810Z,86.27
2023-03-25T08:27:40.074Z,85.96
2023-03-25T08:27:50.331Z,85.96
2023-03-25T08:28:00.587Z,86.16
2023-03-25T08:28:10.873Z,86.27
2023-03-25T08:28:21.127Z,86.47
2023-03-25T08:28:31.389Z,86.88
2023-03-25T08:28:41.653Z,87.19
2023-03-25T08:28:51.922Z,87.15
2023-03-25T08:29:02.172Z,87.09
2023-03-25T08:29:12.439Z,87.05
2023-03-25T08:29:22.691Z,86.95
2023-03-25T08:29:32.963Z,87.15
2023-03-25T08:29:43.239Z,87.36
2023-03-25T08:29:53.497Z,87.67
2023-03-25T08:30:03.757Z,87.87
2023-03-25T08:30:14.027Z,88.08
2023-03-25T08:30:24.289Z,88.18
2023-03-25T08:30:34.545Z,88.08
2023-03-25T08:30:44.807Z,87.87
2023-03-25T08:30:55.485Z,87.87
2023-03-25T08:31:05.482Z,87.63
2023-03-25T08:31:15.765Z,87.52
2023-03-25T08:31:26.045Z,87.73
2023-03-25T08:31:36.313Z,87.63
2023-03-25T08:31:46.592Z,87.42
2023-03-25T08:31:58.004Z,87.42
2023-03-25T08:32:07.413Z,87.42
2023-03-25T08:32:17.648Z,87.22
2023-03-25T08:32:28.049Z,86.80
2023-03-25T08:32:38.143Z,86.50
2023-03-25T08:32:48.419Z,86.80
2023-03-25T08:32:58.736Z,87.01
2023-03-25T08:33:09.044Z,86.70
2023-03-25T08:33:19.312Z,86.29
2023-03-25T08:33:29.577Z,86.08
2023-03-25T08:33:39.839Z,86.08
2023-03-25T08:33:50.097Z,86.19
2023-03-25T08:34:00.364Z,86.29
2023-03-25T08:34:10.636Z,86.50
2023-03-25T08:34:20.893Z,86.40
2023-03-25T08:34:31.148Z,86.50
2023-03-25T08:34:41.422Z,86.80
2023-03-25T08:34:51.672Z,86.77
2023-03-25T08:35:01.933Z,86.97
2023-03-25T08:35:12.190Z,87.18
2023-03-25T08:35:22.471Z,87.59
2023-03-25T08:35:32.753Z,87.69
2023-03-25T08:35:43.061Z,87.90
2023-03-25T08:35:53.597Z,88.20
2023-03-25T08:36:03.614Z,88.20
2023-03-25T08:36:13.872Z,88.00
2023-03-25T08:36:24.121Z,87.69
2023-03-25T08:36:34.389Z,87.38
2023-03-25T08:36:44.647Z,87.07
2023-03-25T08:36:54.920Z,86.66
2023-03-25T08:37:05.183Z,86.56
2023-03-25T08:37:15.444Z,86.56
2023-03-25T08:37:25.712Z,86.97
2023-03-25T08:37:35.968Z,87.69
2023-03-25T08:37:46.232Z,88.10
2023-03-25T08:37:57.510Z,88.17
2023-03-25T08:38:06.921Z,88.27
2023-03-25T08:38:17.200Z,88.27
2023-03-25T08:38:27.462Z,87.96
2023-03-25T08:38:37.715Z,87.65
2023-03-25T08:38:47.980Z,87.13
2023-03-25T08:38:58.245Z,86.62
2023-03-25T08:39:08.502Z,86.21
2023-03-25T08:39:18.762Z,86.11
2023-03-25T08:39:29.027Z,86.11
2023-03-25T08:39:39.297Z,86.21
2023-03-25T08:39:49.620Z,86.00
2023-03-25T08:39:59.852Z,85.80
2023-03-25T08:40:10.124Z,85.80
2023-03-25T08:40:20.374Z,86.21
2023-03-25T08:40:30.638Z,86.52
2023-03-25T08:40:40.900Z,86.93
2023-03-25T08:40:51.161Z,87.45
2023-03-25T08:41:01.433Z,87.96
2023-03-25T08:41:11.684Z,88.17
2023-03-25T08:41:21.939Z,87.96
2023-03-25T08:41:32.201Z,87.96
2023-03-25T08:41:42.463Z,88.06
2023-03-25T08:41:52.723Z,88.02
2023-03-25T08:42:02.987Z,88.12
2023-03-25T08:42:13.289Z,88.12
2023-03-25T08:42:23.519Z,88.02
2023-03-25T08:42:33.776Z,87.71
2023-03-25T08:42:44.028Z,87.51
2023-03-25T08:42:54.291Z,87.40
2023-03-25T08:43:04.593Z,87.20
2023-03-25T08:43:14.872Z,87.10
2023-03-25T08:43:26.942Z,86.99
2023-03-25T08:43:35.469Z,86.99
2023-03-25T08:43:45.765Z,87.10
2023-03-25T08:43:56.003Z,87.40
2023-03-25T08:44:06.260Z,87.51
2023-03-25T08:44:16.525Z,87.40
2023-03-25T08:44:36.997Z,87.61
2023-03-25T08:44:47.283Z,87.30
2023-03-25T08:44:57.518Z,87.51
2023-03-25T08:45:07.795Z,87.71
2023-03-25T08:45:18.048Z,87.51
2023-03-25T08:45:28.309Z,87.20
2023-03-25T08:45:38.574Z,86.79
2023-03-25T08:45:49.110Z,87.16
2023-03-25T08:45:59.241Z,87.05
2023-03-25T08:46:09.488Z,87.05
2023-03-25T08:46:19.769Z,87.26
2023-03-25T08:46:30.077Z,87.46
2023-03-25T08:46:40.364Z,87.57
2023-03-25T08:46:50.655Z,87.77
2023-03-25T08:47:00.918Z,88.08
2023-03-25T08:47:11.178Z,88.08
2023-03-25T08:47:21.441Z,87.88
2023-03-25T08:47:31.832Z,87.98
2023-03-25T08:47:42.119Z,88.18
2023-03-25T08:47:52.406Z,87.98
2023-03-25T08:48:02.754Z,87.57
2023-03-25T08:48:13.015Z,87.26
2023-03-25T08:48:23.268Z,87.46
2023-03-25T08:48:33.535Z,87.57
2023-03-25T08:48:43.792Z,87.67
2023-03-25T08:48:54.056Z,87.67
2023-03-25T08:49:04.318Z,87.67
2023-03-25T08:49:14.582Z,87.57
2023-03-25T08:49:24.867Z,87.37
2023-03-25T08:49:35.104Z,87.05
2023-03-25T08:49:45.366Z,86.85
2023-03-25T08:49:55.629Z,86.81
2023-03-25T08:50:05.910Z,86.60
2023-03-25T08:50:16.156Z,86.81
2023-03-25T08:50:26.474Z,87.12
2023-03-25T08:50:36.729Z,87.22
2023-03-25T08:50:46.995Z,87.12
2023-03-25T08:50:57.262Z,86.91
2023-03-25T08:51:07.516Z,86.81
2023-03-25T08:51:17.784Z,86.91
2023-03-25T08:51:28.028Z,87.02
2023-03-25T08:51:38.289Z,87.22
2023-03-25T08:51:48.555Z,87.22
2023-03-25T08:51:58.816Z,87.12
2023-03-25T08:52:09.077Z,86.91
2023-03-25T08:52:19.358Z,86.71
2023-03-25T08:52:29.606Z,86.50
2023-03-25T08:52:39.864Z,86.30
2023-03-25T08:52:50.122Z,86.30
2023-03-25T08:53:00.382Z,86.46
2023-03-25T08:53:10.659Z,86.46
2023-03-25T08:53:20.923Z,86.36
2023-03-25T08:53:31.181Z,86.15
2023-03-25T08:53:41.453Z,86.25
2023-03-25T08:53:51.704Z,86.25
2023-03-25T08:54:01.970Z,86.15
2023-03-25T08:54:12.238Z,85.95
2023-03-25T08:54:22.503Z,85.95
2023-03-25T08:54:32.766Z,85.95
2023-03-25T08:54:43.034Z,85.95
2023-03-25T08:54:53.292Z,85.95
2023-03-25T08:55:03.546Z,85.95
2023-03-25T08:55:13.806Z,85.74
2023-03-25T08:55:24.077Z,85.85
2023-03-25T08:55:34.351Z,85.95
2023-03-25T08:55:44.611Z,85.85
2023-03-25T08:55:54.875Z,85.64
2023-03-25T08:56:05.136Z,85.44
2023-03-25T08:56:15.417Z,85.23
2023-03-25T08:56:25.666Z,85.23
2023-03-25T08:56:35.955Z,85.03
2023-03-25T08:56:46.224Z,84.92
2023-03-25T08:56:56.547Z,84.72
2023-03-25T08:57:06.823Z,84.61
2023-03-25T08:57:17.062Z,84.52
2023-03-25T08:57:27.358Z,84.41
2023-03-25T08:57:37.589Z,84.31
2023-03-25T08:57:47.870Z,84.31
2023-03-25T08:57:58.135Z,84.20
2023-03-25T08:58:08.403Z,84.20
2023-03-25T08:58:18.658Z,84.20
2023-03-25T08:58:28.927Z,84.20
2023-03-25T08:58:39.197Z,84.10
2023-03-25T08:58:49.450Z,84.31
2023-03-25T08:58:59.712Z,84.82
2023-03-25T08:59:09.973Z,84.82
2023-03-25T08:59:20.247Z,85.03
2023-03-25T08:59:30.512Z,85.03
2023-03-25T08:59:40.765Z,84.82
2023-03-25T08:59:51.016Z,84.58
2023-03-25T09:00:01.288Z,84.72
2023-03-25T09:00:11.546Z,84.72
2023-03-25T09:00:21.807Z,84.37
2023-03-25T09:00:32.074Z,84.37
2023-03-25T09:00:42.335Z,84.47
2023-03-25T09:00:52.615Z,84.37
2023-03-25T09:01:02.873Z,84.27
2023-03-25T09:01:13.160Z,84.37
2023-03-25T09:01:23.494Z,84.47
2023-03-25T09:01:33.772Z,84.47
2023-03-25T09:01:43.994Z,84.37
2023-03-25T09:01:55.855Z,84.27
2023-03-25T09:02:04.709Z,84.06
2023-03-25T09:02:15.000Z,84.06
2023-03-25T09:02:25.282Z,83.96
2023-03-25T09:02:35.644Z,83.96
2023-03-25T09:02:45.914Z,84.06
2023-03-25T09:02:56.205Z,84.06
2023-03-25T09:03:06.532Z,84.06
2023-03-25T09:03:16.788Z,83.76
2023-03-25T09:03:27.047Z,83.65
2023-03-25T09:03:37.338Z,83.55
2023-03-25T09:03:47.589Z,83.45
2023-03-25T09:03:57.892Z,83.45
2023-03-25T09:04:08.123Z,83.55
2023-03-25T09:04:18.393Z,83.96
2023-03-25T09:04:28.651Z,84.27
2023-03-25T09:04:38.908Z,84.37
2023-03-25T09:04:49.215Z,84.37
2023-03-25T09:04:59.538Z,84.37
2023-03-25T09:05:09.798Z,84.17
2023-03-25T09:05:20.115Z,84.06
2023-03-25T09:05:30.425Z,83.86
2023-03-25T09:05:40.761Z,83.76
2023-03-25T09:05:51.222Z,83.65
2023-03-25T09:06:01.380Z,83.55
2023-03-25T09:06:11.640Z,83.86
2023-03-25T09:06:21.907Z,84.17
2023-03-25T09:06:47.948Z,84.37
2023-03-25T09:06:48.229Z,84.27
2023-03-25T09:07:10.427Z,84.37
2023-03-25T09:07:10.962Z,84.47
2023-03-25T09:07:14.432Z,84.37
2023-03-25T09:07:23.840Z,84.17
2023-03-25T09:07:34.102Z,83.86
2023-03-25T09:07:44.367Z,83.55
2023-03-25T09:07:54.648Z,83.34
2023-03-25T09:08:04.927Z,83.25
2023-03-25T09:08:15.183Z,83.14
2023-03-25T09:08:25.444Z,83.14
2023-03-25T09:08:35.703Z,83.04
2023-03-25T09:08:50.158Z,82.83
2023-03-25T09:08:56.267Z,82.53
2023-03-25T09:09:06.488Z,82.22
2023-03-25T09:09:16.756Z,82.01
2023-03-25T09:09:27.024Z,81.91
2023-03-25T09:09:37.280Z,81.81
2023-03-25T09:09:47.533Z,81.81
2023-03-25T09:09:57.793Z,81.91
2023-03-25T09:10:08.057Z,82.22
2023-03-25T09:10:20.063Z,82.53
2023-03-25T09:10:28.599Z,82.73
2023-03-25T09:10:38.856Z,82.93
2023-03-25T09:10:49.132Z,82.93
2023-03-25T09:10:59.419Z,83.04
2023-03-25T09:11:09.694Z,82.93
2023-03-25T09:11:36.510Z,82.93
2023-03-25T09:11:41.427Z,82.93
2023-03-25T09:11:50.816Z,82.73
2023-03-25T09:12:01.088Z,82.53
2023-03-25T09:12:11.339Z,82.32
2023-03-25T09:12:21.610Z,82.22
2023-03-25T09:12:31.860Z,82.22
2023-03-25T09:12:42.130Z,82.32
2023-03-25T09:12:52.382Z,82.53
2023-03-25T09:13:02.659Z,82.53
2023-03-25T09:13:12.929Z,82.63
2023-03-25T09:13:23.197Z,82.83
2023-03-25T09:13:33.471Z,82.93
2023-03-25T09:13:43.766Z,82.83
2023-03-25T09:13:54.005Z,82.73
2023-03-25T09:14:04.274Z,82.69
2023-03-25T09:14:14.537Z,82.53
2023-03-25T09:14:24.806Z,82.42
2023-03-25T09:14:35.105Z,82.32
2023-03-25T09:14:45.366Z,82.28
2023-03-25T09:14:55.640Z,82.39
2023-03-25T09:15:05.897Z,82.18
2023-03-25T09:15:16.185Z,82.18
2023-03-25T09:15:26.425Z,82.18
2023-03-25T09:15:36.696Z,82.18
2023-03-25T09:15:46.976Z,82.18
2023-03-25T09:15:57.253Z,82.18
2023-03-25T09:16:07.510Z,82.39
2023-03-25T09:16:17.824Z,82.39
2023-03-25T09:16:28.101Z,82.39
2023-03-25T09:16:38.344Z,82.39
2023-03-25T09:16:48.601Z,82.49
2023-03-25T09:16:58.872Z,82.28
2023-03-25T09:17:09.974Z,82.08
2023-03-25T09:17:19.370Z,81.77
2023-03-25T09:17:29.668Z,81.77
2023-03-25T09:17:40.005Z,81.87
2023-03-25T09:17:50.336Z,82.08
2023-03-25T09:18:00.596Z,82.18
2023-03-25T09:18:10.861Z,82.08
2023-03-25T09:18:21.140Z,82.08
2023-03-25T09:18:31.385Z,82.08
2023-03-25T09:18:41.656Z,81.98
2023-03-25T09:18:51.905Z,81.77
2023-03-25T09:19:02.165Z,81.57
2023-03-25T09:19:12.439Z,81.46
2023-03-25T09:19:22.692Z,81.46
2023-03-25T09:19:32.956Z,81.46
2023-03-25T09:19:43.219Z,81.46
2023-03-25T09:19:54.761Z,81.67
2023-03-25T09:20:03.747Z,81.77
2023-03-25T09:20:13.996Z,82.08
2023-03-25T09:20:24.296Z,82.28
2023-03-25T09:20:34.517Z,82.39
2023-03-25T09:20:44.780Z,82.39
2023-03-25T09:20:55.038Z,82.08
2023-03-25T09:21:05.303Z,81.87
2023-03-25T09:21:15.581Z,81.77
2023-03-25T09:21:25.838Z,81.87
2023-03-25T09:21:36.092Z,82.08
2023-03-25T09:21:46.352Z,82.08
2023-03-25T09:21:56.615Z,82.08
2023-03-25T09:22:06.882Z,81.98
2023-03-25T09:22:17.156Z,81.87
2023-03-25T09:22:27.399Z,81.77
2023-03-25T09:22:37.661Z,81.32
2023-03-25T09:22:47.932Z,81.22
2023-03-25T09:22:58.180Z,81.22
2023-03-25T09:23:08.456Z,81.22
2023-03-25T09:23:18.721Z,81.12
2023-03-25T09:23:29.035Z,81.01
2023-03-25T09:23:39.276Z,80.91
2023-03-25T09:23:49.540Z,80.81
2023-03-25T09:23:59.983Z,80.51
2023-03-25T09:24:10.037Z,80.30
2023-03-25T09:24:20.298Z,80.19
2023-03-25T09:24:30.566Z,80.19
2023-03-25T09:24:40.819Z,80.09
2023-03-25T09:24:51.075Z,80.19
2023-03-25T09:25:01.339Z,80.09
2023-03-25T09:25:11.604Z,79.89
2023-03-25T09:25:21.878Z,79.68
2023-03-25T09:25:32.127Z,79.68
2023-03-25T09:25:42.396Z,79.79
2023-03-25T09:25:52.778Z,79.79
2023-03-25T09:26:03.071Z,79.58
2023-03-25T09:26:13.333Z,79.38
2023-03-25T09:26:23.594Z,79.17
2023-03-25T09:26:33.853Z,79.17
2023-03-25T09:26:44.124Z,78.97
2023-03-25T09:26:54.432Z,78.97
2023-03-25T09:27:04.651Z,78.97
2023-03-25T09:27:14.918Z,78.76
2023-03-25T09:27:25.189Z,78.56
2023-03-25T09:27:35.448Z,78.63
2023-03-25T09:27:45.705Z,78.35
2023-03-25T09:27:55.966Z,78.01
2023-03-25T09:28:06.250Z,78.05
2023-03-25T09:28:16.508Z,78.21
2023-03-25T09:28:26.767Z,78.31
2023-03-25T09:28:37.031Z,78.42
2023-03-25T09:28:47.294Z,78.56
2023-03-25T09:29:00.480Z,78.42
2023-03-25T09:29:07.940Z,78.42
2023-03-25T09:29:18.210Z,78.11
2023-03-25T09:29:28.480Z,77.80
2023-03-25T09:29:38.721Z,77.70
2023-03-25T09:29:48.983Z,77.70
2023-03-25T09:30:09.664Z,77.94
2023-03-25T09:30:19.931Z,78.11
2023-03-25T09:30:30.184Z,78.31
2023-03-25T09:30:40.446Z,78.42
2023-03-25T09:30:50.775Z,78.42
2023-03-25T09:31:01.022Z,78.31
2023-03-25T09:31:11.270Z,78.21
2023-03-25T09:31:21.588Z,78.01
2023-03-25T09:31:31.839Z,77.70
2023-03-25T09:31:42.123Z,77.50
2023-03-25T09:31:52.397Z,77.39
2023-03-25T09:32:02.675Z,77.39
2023-03-25T09:32:12.936Z,77.43
2023-03-25T09:32:23.183Z,77.43
2023-03-25T09:32:33.485Z,77.53
2023-03-25T09:32:43.758Z,77.50
2023-03-25T09:32:53.996Z,77.50
2023-03-25T09:33:04.389Z,77.50
2023-03-25T09:33:14.671Z,77.53
2023-03-25T09:33:24.946Z,77.39
2023-03-25T09:33:35.197Z,77.39
2023-03-25T09:33:45.456Z,77.23
2023-03-25T09:33:55.716Z,77.12
2023-03-25T09:34:05.978Z,77.12
2023-03-25T09:34:16.333Z,77.12
2023-03-25T09:34:26.558Z,77.12
2023-03-25T09:34:36.813Z,77.23
2023-03-25T09:34:47.093Z,77.33
2023-03-25T09:34:57.359Z,77.12
2023-03-25T09:35:07.606Z,77.12
2023-03-25T09:35:17.891Z,77.23
2023-03-25T09:35:28.148Z,77.02
2023-03-25T09:35:38.423Z,76.92
2023-03-25T09:35:48.718Z,76.92
2023-03-25T09:35:59.027Z,77.12
2023-03-25T09:36:09.309Z,77.23
2023-03-25T09:36:19.564Z,76.92
2023-03-25T09:36:29.837Z,76.81
2023-03-25T09:36:40.089Z,77.02
2023-03-25T09:36:50.355Z,77.02
2023-03-25T09:37:00.622Z,77.12
2023-03-25T09:37:10.876Z,77.23
2023-03-25T09:37:21.145Z,77.12
2023-03-25T09:37:31.399Z,77.02
2023-03-25T09:37:41.657Z,76.92
2023-03-25T09:37:52.604Z,76.81
2023-03-25T09:38:02.368Z,76.61
2023-03-25T09:38:12.622Z,76.40
2023-03-25T09:38:22.886Z,76.40
2023-03-25T09:38:33.142Z,76.51
2023-03-25T09:38:43.423Z,76.31
2023-03-25T09:38:53.692Z,76.10
2023-03-25T09:39:03.947Z,75.99
2023-03-25T09:39:14.235Z,75.89
2023-03-25T09:39:24.451Z,75.99
2023-03-25T09:39:34.717Z,76.20
2023-03-25T09:39:44.979Z,76.20
2023-03-25T09:39:55.241Z,76.20
2023-03-25T09:40:05.504Z,75.99
2023-03-25T09:40:15.773Z,75.89
2023-03-25T09:40:26.044Z,75.79
2023-03-25T09:40:36.293Z,75.69
2023-03-25T09:40:46.565Z,75.59
2023-03-25T09:40:56.942Z,75.59
2023-03-25T09:41:07.185Z,75.59
2023-03-25T09:41:17.443Z,75.59
2023-03-25T09:41:27.707Z,75.69
2023-03-25T09:41:37.969Z,75.69
2023-03-25T09:41:48.264Z,75.69
2023-03-25T09:41:58.517Z,75.59
2023-03-25T09:42:08.772Z,75.69
2023-03-25T09:42:19.031Z,75.79
2023-03-25T09:42:29.297Z,75.79
2023-03-25T09:42:39.565Z,75.89
2023-03-25T09:42:49.829Z,75.99
2023-03-25T09:43:00.094Z,76.10
2023-03-25T09:43:10.375Z,75.89
2023-03-25T09:43:20.627Z,75.69
2023-03-25T09:43:30.897Z,75.59
2023-03-25T09:43:41.299Z,75.59
2023-03-25T09:43:51.556Z,75.69
2023-03-25T09:44:01.823Z,75.65
2023-03-25T09:44:12.092Z,75.69
2023-03-25T09:44:22.329Z,75.79
2023-03-25T09:44:32.595Z,75.79
2023-03-25T09:44:42.853Z,75.89
2023-03-25T09:44:53.114Z,75.89
2023-03-25T09:45:11.487Z,75.89
2023-03-25T09:45:14.853Z,75.79